DAL201 FAOR-KATL
Flight info
| Callsign | DAL201 |
|---|---|
| Flight time | N/A |
| Altitude | 34000 |
| Route | VASUR3A VASUR UQ24 ETOSA UL435 XOXAM UN184 EVUVI UT375 ETLOV DCT 15S010E 12S005E 09S000W 06S005W/N0499F360 03S010W 01S015W 02N020W DCT BUVUK/N0491F380 UL435 IRELA DCT 15N040W/M085F380 21N050W/M085F400 26N060W DCT MEGGG L375 JAINS/N0484F400 DCT HOTHH SITTH3 |
| Aircraft | A359/H-SDE2E3GHIJ3J4J5LM1ORWXY/LB1D1 |
Departure
| Time | 2026-04-30 20:10 |
|---|---|
| Airport | O.R. Tambo International Airport (FAOR) |
Arrival
| Time | N/A |
|---|---|
| Airport | Hartsfield Jackson Atlanta International Airport (KATL) |
| Time | Latitude | Longitude | Altitude | Speed | Heading |
|---|---|---|---|---|---|
| 2026-04-30 19:32 | -26.13659 | 28.23266 | 5557 ft | 0 kts | 276° |
| 2026-04-30 19:59 | -26.13661 | 28.23287 | 5553 ft | 4 kts | 276° |
| 2026-04-30 19:59 | -26.13663 | 28.23313 | 5554 ft | 2 kts | 276° |
| 2026-04-30 19:59 | -26.13640 | 28.23348 | 5554 ft | 3 kts | 186° |
| 2026-04-30 20:00 | -26.13614 | 28.23351 | 5553 ft | 4 kts | 186° |
| 2026-04-30 20:00 | -26.13607 | 28.23352 | 5557 ft | 0 kts | 186° |
| 2026-04-30 20:05 | -26.13613 | 28.23351 | 5553 ft | 4 kts | 186° |
| 2026-04-30 20:05 | -26.13751 | 28.23334 | 5556 ft | 12 kts | 186° |
| 2026-04-30 20:06 | -26.13831 | 28.23322 | 5556 ft | 11 kts | 192° |
| 2026-04-30 20:06 | -26.13903 | 28.23301 | 5556 ft | 11 kts | 195° |
| 2026-04-30 20:06 | -26.13965 | 28.23282 | 5558 ft | 9 kts | 195° |
| 2026-04-30 20:06 | -26.14026 | 28.23263 | 5560 ft | 10 kts | 195° |
| 2026-04-30 20:07 | -26.14101 | 28.23239 | 5562 ft | 13 kts | 195° |
| 2026-04-30 20:07 | -26.14194 | 28.23211 | 5562 ft | 14 kts | 195° |
| 2026-04-30 20:07 | -26.14318 | 28.23218 | 5567 ft | 3 kts | 166° |
| 2026-04-30 20:08 | -26.14326 | 28.23220 | 5566 ft | 1 kts | 166° |
| 2026-04-30 20:08 | -26.14336 | 28.23223 | 5566 ft | 4 kts | 166° |
| 2026-04-30 20:08 | -26.14392 | 28.23238 | 5566 ft | 14 kts | 166° |
| 2026-04-30 20:08 | -26.14502 | 28.23269 | 5568 ft | 16 kts | 166° |
| 2026-04-30 20:09 | -26.14594 | 28.23312 | 5570 ft | 13 kts | 132° |
| 2026-04-30 20:09 | -26.14620 | 28.23407 | 5570 ft | 13 kts | 101° |
| 2026-04-30 20:09 | -26.14419 | 28.23506 | 5569 ft | 48 kts | 15° |
| 2026-04-30 20:10 | -26.13074 | 28.23921 | 5554 ft | 149 kts | 15° |
| 2026-04-30 20:10 | -26.11975 | 28.24264 | 5835 ft | 165 kts | 14° |
| 2026-04-30 20:10 | -26.10880 | 28.24621 | 6416 ft | 163 kts | 14° |
| 2026-04-30 20:11 | -26.08739 | 28.25397 | 7160 ft | 166 kts | 12° |
| 2026-04-30 20:11 | -26.07563 | 28.25406 | 7242 ft | 177 kts | 342° |
| 2026-04-30 20:11 | -26.06502 | 28.24648 | 7344 ft | 191 kts | 313° |
| 2026-04-30 20:12 | -26.05308 | 28.21775 | 7744 ft | 218 kts | 295° |
| 2026-04-30 20:12 | -26.04755 | 28.20125 | 7930 ft | 232 kts | 294° |
| 2026-04-30 20:12 | -26.04157 | 28.18396 | 8126 ft | 246 kts | 295° |
| 2026-04-30 20:13 | -26.03301 | 28.16713 | 8392 ft | 254 kts | 313° |
| 2026-04-30 20:13 | -26.01906 | 28.15504 | 8828 ft | 257 kts | 330° |
| 2026-04-30 20:13 | -26.00295 | 28.14547 | 9318 ft | 262 kts | 332° |
| 2026-04-30 20:13 | -25.98652 | 28.13617 | 9745 ft | 267 kts | 331° |
| 2026-04-30 20:14 | -25.96994 | 28.12677 | 10254 ft | 268 kts | 330° |
| 2026-04-30 20:14 | -25.95315 | 28.11718 | 10537 ft | 277 kts | 330° |
| 2026-04-30 20:14 | -25.93566 | 28.10713 | 10770 ft | 289 kts | 330° |
| 2026-04-30 20:14 | -25.91739 | 28.09664 | 10980 ft | 302 kts | 330° |
| 2026-04-30 20:15 | -25.89840 | 28.08571 | 11186 ft | 314 kts | 330° |
| 2026-04-30 20:15 | -25.87867 | 28.07437 | 11393 ft | 325 kts | 330° |
| 2026-04-30 20:15 | -25.85820 | 28.06258 | 11592 ft | 336 kts | 330° |
| 2026-04-30 20:15 | -25.83713 | 28.05047 | 11800 ft | 346 kts | 330° |
| 2026-04-30 20:16 | -25.81546 | 28.03802 | 12018 ft | 356 kts | 330° |
| 2026-04-30 20:16 | -25.79316 | 28.02522 | 12188 ft | 365 kts | 330° |
| 2026-04-30 20:16 | -25.77042 | 28.01219 | 12483 ft | 370 kts | 330° |
| 2026-04-30 20:16 | -25.74749 | 27.99903 | 12825 ft | 372 kts | 330° |
| 2026-04-30 20:17 | -25.72443 | 27.98581 | 13229 ft | 374 kts | 330° |
| 2026-04-30 20:17 | -25.70125 | 27.97252 | 13615 ft | 375 kts | 330° |
| 2026-04-30 20:17 | -25.67769 | 27.95902 | 14018 ft | 377 kts | 330° |
| 2026-04-30 20:17 | -25.65431 | 27.94563 | 14344 ft | 379 kts | 330° |
| 2026-04-30 20:18 | -25.63080 | 27.93216 | 14636 ft | 382 kts | 330° |
| 2026-04-30 20:18 | -25.60713 | 27.91860 | 14951 ft | 384 kts | 330° |
| 2026-04-30 20:18 | -25.58370 | 27.90431 | 15242 ft | 385 kts | 325° |
| 2026-04-30 20:18 | -25.56296 | 27.88565 | 15506 ft | 385 kts | 312° |
| 2026-04-30 20:19 | -25.54661 | 27.86227 | 15820 ft | 385 kts | 303° |
| 2026-04-30 20:19 | -25.53708 | 27.84568 | 16010 ft | 386 kts | 301° |
| 2026-04-30 20:19 | -25.51925 | 27.81101 | 16404 ft | 388 kts | 298° |
| 2026-04-30 20:19 | -25.50642 | 27.78460 | 16681 ft | 390 kts | 297° |
| 2026-04-30 20:20 | -25.49360 | 27.75808 | 16965 ft | 392 kts | 297° |
| 2026-04-30 20:20 | -25.48058 | 27.73146 | 17241 ft | 394 kts | 298° |
| 2026-04-30 20:20 | -25.46736 | 27.70483 | 17508 ft | 396 kts | 298° |
| 2026-04-30 20:20 | -25.45396 | 27.67814 | 17780 ft | 398 kts | 298° |
| 2026-04-30 20:21 | -25.44041 | 27.65140 | 18045 ft | 400 kts | 298° |
| 2026-04-30 20:21 | -25.42674 | 27.62452 | 18307 ft | 401 kts | 298° |
| 2026-04-30 20:21 | -25.41301 | 27.59757 | 18556 ft | 403 kts | 298° |
| 2026-04-30 20:21 | -25.39922 | 27.57053 | 18796 ft | 404 kts | 298° |
| 2026-04-30 20:22 | -25.38541 | 27.54347 | 19038 ft | 405 kts | 298° |
| 2026-04-30 20:22 | -25.37157 | 27.51634 | 19273 ft | 406 kts | 298° |
| 2026-04-30 20:22 | -25.35769 | 27.48914 | 19518 ft | 406 kts | 298° |
| 2026-04-30 20:22 | -25.34380 | 27.46192 | 19738 ft | 408 kts | 298° |
| 2026-04-30 20:23 | -25.32982 | 27.43453 | 19908 ft | 410 kts | 299° |
| 2026-04-30 20:23 | -25.31583 | 27.40716 | 20212 ft | 408 kts | 299° |
| 2026-04-30 20:23 | -25.30185 | 27.37982 | 20464 ft | 409 kts | 299° |
| 2026-04-30 20:23 | -25.28784 | 27.35241 | 20684 ft | 410 kts | 299° |
| 2026-04-30 20:24 | -25.27379 | 27.32495 | 20901 ft | 411 kts | 299° |
| 2026-04-30 20:24 | -25.25968 | 27.29740 | 21144 ft | 412 kts | 299° |
| 2026-04-30 20:24 | -25.24554 | 27.26980 | 21374 ft | 413 kts | 299° |
| 2026-04-30 20:24 | -25.23137 | 27.24217 | 21597 ft | 414 kts | 300° |
| 2026-04-30 20:25 | -25.20295 | 27.18676 | 22074 ft | 416 kts | 300° |
| 2026-04-30 20:25 | -25.18954 | 27.15841 | 22274 ft | 417 kts | 296° |
| 2026-04-30 20:26 | -25.16512 | 27.10007 | 22740 ft | 419 kts | 295° |
| 2026-04-30 20:26 | -25.14103 | 27.04131 | 23248 ft | 421 kts | 296° |
| 2026-04-30 20:26 | -25.12876 | 27.01200 | 23448 ft | 422 kts | 296° |
| 2026-04-30 20:27 | -25.10779 | 26.96266 | 23750 ft | 425 kts | 296° |
| 2026-04-30 20:27 | -25.08245 | 26.90364 | 24138 ft | 426 kts | 296° |
| 2026-04-30 20:28 | -25.05699 | 26.84448 | 24562 ft | 427 kts | 296° |
| 2026-04-30 20:28 | -25.03145 | 26.78516 | 24986 ft | 429 kts | 296° |
| 2026-04-30 20:29 | -25.00580 | 26.72562 | 25388 ft | 431 kts | 296° |
| 2026-04-30 20:30 | -24.96682 | 26.63527 | 26052 ft | 435 kts | 296° |
| 2026-04-30 20:30 | -24.92766 | 26.54465 | 26699 ft | 439 kts | 297° |
| 2026-04-30 20:31 | -24.88804 | 26.45327 | 27442 ft | 442 kts | 297° |
| 2026-04-30 20:32 | -24.84806 | 26.36117 | 28126 ft | 446 kts | 297° |
| 2026-04-30 20:32 | -24.82116 | 26.29931 | 28537 ft | 449 kts | 297° |
| 2026-04-30 20:33 | -24.80766 | 26.26830 | 28730 ft | 450 kts | 297° |
| 2026-04-30 20:33 | -24.78058 | 26.20614 | 29271 ft | 449 kts | 297° |
| 2026-04-30 20:33 | -24.76706 | 26.17515 | 29577 ft | 448 kts | 297° |
| 2026-04-30 20:34 | -24.74013 | 26.11344 | 30102 ft | 447 kts | 297° |
| 2026-04-30 20:34 | -24.71310 | 26.05164 | 30426 ft | 448 kts | 297° |
| 2026-04-30 20:35 | -24.69896 | 26.02119 | 30669 ft | 446 kts | 300° |
| 2026-04-30 20:35 | -24.68362 | 25.99161 | 30908 ft | 445 kts | 301° |
| 2026-04-30 20:35 | -24.65189 | 25.93346 | 31390 ft | 441 kts | 302° |
| 2026-04-30 20:36 | -24.63620 | 25.90465 | 31680 ft | 438 kts | 302° |
| 2026-04-30 20:36 | -24.62070 | 25.87586 | 31892 ft | 437 kts | 301° |
| 2026-04-30 20:36 | -24.59269 | 25.81644 | 32252 ft | 438 kts | 294° |
| 2026-04-30 20:37 | -24.58121 | 25.78544 | 32421 ft | 438 kts | 294° |
| 2026-04-30 20:37 | -24.57017 | 25.75428 | 32599 ft | 438 kts | 293° |
| 2026-04-30 20:37 | -24.55934 | 25.72304 | 32768 ft | 437 kts | 293° |
| 2026-04-30 20:37 | -24.54861 | 25.69184 | 32943 ft | 436 kts | 293° |
| 2026-04-30 20:38 | -24.53791 | 25.66073 | 33046 ft | 437 kts | 293° |
| 2026-04-30 20:38 | -24.51631 | 25.59827 | 33358 ft | 435 kts | 293° |
| 2026-04-30 20:39 | -24.49478 | 25.53640 | 33692 ft | 433 kts | 294° |
| 2026-04-30 20:39 | -24.48400 | 25.50552 | 33814 ft | 433 kts | 294° |
| 2026-04-30 20:39 | -24.47321 | 25.47465 | 33952 ft | 433 kts | 294° |
| 2026-04-30 20:40 | -24.45163 | 25.41293 | 34089 ft | 435 kts | 294° |
| 2026-04-30 20:40 | -24.42981 | 25.35070 | 34089 ft | 439 kts | 294° |
| 2026-04-30 20:41 | -24.39704 | 25.25724 | 34082 ft | 435 kts | 294° |
| 2026-04-30 20:41 | -24.37529 | 25.19535 | 34084 ft | 435 kts | 294° |
| 2026-04-30 20:42 | -24.35350 | 25.13348 | 34044 ft | 435 kts | 294° |
| 2026-04-30 20:43 | -24.32075 | 25.04067 | 34083 ft | 439 kts | 294° |
| 2026-04-30 20:43 | -24.29854 | 24.97781 | 34070 ft | 437 kts | 293° |
| 2026-04-30 20:44 | -24.26586 | 24.88546 | 34068 ft | 434 kts | 293° |
| 2026-04-30 20:45 | -24.22191 | 24.76165 | 34060 ft | 435 kts | 294° |
| 2026-04-30 20:45 | -24.19802 | 24.70098 | 34061 ft | 433 kts | 300° |
| 2026-04-30 20:46 | -24.13117 | 24.59159 | 34055 ft | 433 kts | 305° |
| 2026-04-30 20:47 | -24.07890 | 24.51061 | 34053 ft | 434 kts | 305° |
| 2026-04-30 20:48 | -24.02677 | 24.42946 | 34049 ft | 434 kts | 305° |